Archival Weather

Tokyo Intl

Tokyo Intl, Japan (RJTT)

Report from: Friday, June 24, 2022 10:05 PM JST
Current time: Tuesday, August 16, 2022 5:16 PM JST

Current weather
Weather history
Weather forecast

Temperature27.0°C (80.6°F)
Heat index29.3°C (84.8°F)
Dew point22.0°C (71.6°F)
Winds 20 kts (10.3 m/s, 23 mph) South-Southwest (210°)
Wind gusts 30 kts (15.4 m/s, 34.5 mph)
Visibility6.2 mi. (10 km)
Clouds Few clouds 1,000 ft. (305 m)
Altimeter29.65 in.Hg (1004 mB)
Relative humidity74 %
Density altitude2,052 ft. (625 m)
Remarks Special weather observation
Flight conditions Visual Meteorological Conditions
Raw dataSPJP31 KWBC 241315 SPECI RJTT 241305Z 21020G30KT 9999 FEW010 27/22 Q1004 RMK 1CU010 A2965
An error has occurred. This application may no longer respond until reloaded. Reload 🗙